createdAt,value
2023-01-01T00:00:31.117Z,21.86
2023-01-01T00:01:38.715Z,21.86
2023-01-01T00:02:43.309Z,21.87
2023-01-01T00:03:53.838Z,21.87
2023-01-01T00:05:00.521Z,21.88
2023-01-01T00:07:24.955Z,22.02
2023-01-01T00:08:30.026Z,21.89
2023-01-01T00:09:54.040Z,21.88
2023-01-01T00:11:02.648Z,21.86
2023-01-01T00:12:07.170Z,21.86
2023-01-01T00:13:12.647Z,21.85
2023-01-01T00:14:16.798Z,21.84
2023-01-01T00:15:20.765Z,21.81
2023-01-01T00:16:23.432Z,21.81
2023-01-01T00:17:31.941Z,21.81
2023-01-01T00:18:34.539Z,21.82
2023-01-01T00:19:38.423Z,21.83
2023-01-01T00:20:41.411Z,21.87
2023-01-01T00:21:46.097Z,21.90
2023-01-01T00:22:56.925Z,21.92
2023-01-01T00:23:54.518Z,21.93
2023-01-01T00:24:58.867Z,21.96
2023-01-01T00:26:01.842Z,21.97
2023-01-01T00:27:05.089Z,21.98
2023-01-01T00:28:10.291Z,21.99
2023-01-01T00:29:13.306Z,21.99
2023-01-01T00:30:18.150Z,21.98
2023-01-01T00:31:23.900Z,21.96
2023-01-01T00:32:27.664Z,21.93
2023-01-01T00:33:31.619Z,21.92
2023-01-01T00:34:37.093Z,21.91
2023-01-01T00:35:44.713Z,21.88
2023-01-01T00:36:48.624Z,21.90
2023-01-01T00:37:56.403Z,21.90
2023-01-01T00:39:02.319Z,21.91
2023-01-01T00:40:06.841Z,21.90
2023-01-01T00:41:11.943Z,21.89
2023-01-01T00:42:17.689Z,21.88
2023-01-01T00:44:54.927Z,21.85
2023-01-01T00:46:02.255Z,21.81
2023-01-01T00:47:12.091Z,21.80
2023-01-01T00:48:15.209Z,21.79
2023-01-01T00:49:19.401Z,21.80
2023-01-01T00:50:25.319Z,21.78
2023-01-01T00:51:36.916Z,21.78
2023-01-01T00:52:38.429Z,21.77
2023-01-01T00:53:41.945Z,21.76
2023-01-01T00:54:47.377Z,21.75
2023-01-01T00:55:54.940Z,21.73
2023-01-01T00:56:59.342Z,21.71
2023-01-01T00:58:05.067Z,21.67
2023-01-01T00:59:11.575Z,21.65
2023-01-01T01:00:17.113Z,21.64
2023-01-01T01:01:21.968Z,21.65
2023-01-01T01:02:26.173Z,21.63
2023-01-01T01:03:31.499Z,21.62
2023-01-01T01:04:37.981Z,21.63
2023-01-01T01:05:48.306Z,21.64
2023-01-01T01:06:57.298Z,21.63
2023-01-01T01:08:03.397Z,21.63
2023-01-01T01:09:10.198Z,21.62
2023-01-01T01:10:15.178Z,21.62
2023-01-01T01:11:21.453Z,21.64
2023-01-01T01:12:25.972Z,21.64
2023-01-01T01:13:30.085Z,21.65
2023-01-01T01:14:34.559Z,21.67
2023-01-01T01:15:40.491Z,21.68
2023-01-01T01:16:44.887Z,21.69
2023-01-01T01:17:48.213Z,21.68
2023-01-01T01:18:52.314Z,21.71
2023-01-01T01:19:56.692Z,21.72
2023-01-01T01:21:01.332Z,21.73
2023-01-01T01:22:07.381Z,21.77
2023-01-01T01:23:11.042Z,21.79
2023-01-01T01:24:15.140Z,21.79
2023-01-01T01:25:19.960Z,21.78
2023-01-01T01:27:39.180Z,21.85
2023-01-01T01:28:48.818Z,21.74
2023-01-01T01:29:47.257Z,21.73
2023-01-01T01:30:51.675Z,21.72
2023-01-01T01:31:56.105Z,21.72
2023-01-01T01:32:59.564Z,21.71
2023-01-01T01:34:02.765Z,21.70
2023-01-01T01:35:07.414Z,21.68
2023-01-01T01:36:13.316Z,21.68
2023-01-01T01:37:18.001Z,21.65
2023-01-01T01:38:20.979Z,21.65
2023-01-01T01:39:25.564Z,21.67
2023-01-01T01:40:28.337Z,21.64
2023-01-01T01:41:31.444Z,21.63
2023-01-01T01:42:34.485Z,21.64
2023-01-01T01:43:42.470Z,21.64
2023-01-01T01:44:51.560Z,21.63
2023-01-01T01:45:56.141Z,21.62
2023-01-01T01:46:58.802Z,21.62
2023-01-01T01:48:02.218Z,21.62
2023-01-01T01:50:34.696Z,21.74
2023-01-01T01:51:39.226Z,21.61
2023-01-01T01:52:58.119Z,21.61
2023-01-01T01:54:03.338Z,21.60
2023-01-01T01:55:07.858Z,21.62
2023-01-01T01:57:28.317Z,21.76
2023-01-01T01:58:31.355Z,21.65
2023-01-01T01:59:38.578Z,21.65
2023-01-01T02:00:41.261Z,21.65
2023-01-01T02:01:44.133Z,21.65
2023-01-01T02:03:11.651Z,21.67
2023-01-01T02:04:14.780Z,21.69
2023-01-01T02:05:19.465Z,21.71
2023-01-01T02:06:22.935Z,21.72
2023-01-01T02:07:26.476Z,21.71
2023-01-01T02:08:30.458Z,21.71
2023-01-01T02:09:33.542Z,21.72
2023-01-01T02:10:36.538Z,21.72
2023-01-01T02:11:39.235Z,21.73
2023-01-01T02:12:42.910Z,21.74
2023-01-01T02:13:46.038Z,21.74
2023-01-01T02:14:49.955Z,21.75
2023-01-01T02:15:55.580Z,21.76
2023-01-01T02:17:05.680Z,21.77
2023-01-01T02:18:13.015Z,21.77
2023-01-01T02:19:22.522Z,21.78
2023-01-01T02:20:34.287Z,21.77
2023-01-01T02:21:43.205Z,21.76
2023-01-01T02:24:19.547Z,21.84
2023-01-01T02:25:41.061Z,21.72
2023-01-01T02:28:44.619Z,21.79
2023-01-01T02:31:07.705Z,21.78
2023-01-01T02:32:22.120Z,21.66
2023-01-01T02:33:25.864Z,21.66
2023-01-01T02:34:31.551Z,21.68
2023-01-01T02:35:38.095Z,21.67
2023-01-01T02:36:43.951Z,21.67
2023-01-01T02:37:49.493Z,21.67
2023-01-01T02:38:53.246Z,21.68
2023-01-01T02:39:57.638Z,21.69
2023-01-01T02:41:16.319Z,21.69
2023-01-01T02:42:18.860Z,21.68
2023-01-01T02:43:24.943Z,21.68
2023-01-01T02:44:26.519Z,21.68
2023-01-01T02:45:29.607Z,21.67
2023-01-01T02:46:33.266Z,21.69
2023-01-01T02:47:37.034Z,21.70
2023-01-01T02:48:51.478Z,21.70
2023-01-01T02:50:01.280Z,21.70
2023-01-01T02:51:06.631Z,21.71
2023-01-01T02:53:33.455Z,21.76
2023-01-01T02:54:51.640Z,21.64
2023-01-01T02:56:08.195Z,21.65
2023-01-01T02:57:26.634Z,21.65
2023-01-01T02:59:06.864Z,21.67
2023-01-01T03:00:32.240Z,21.65
2023-01-01T03:03:08.679Z,21.71
2023-01-01T03:04:17.797Z,21.63
2023-01-01T03:05:42.441Z,21.68
2023-01-01T03:06:57.916Z,21.74
2023-01-01T03:09:45.351Z,21.93
2023-01-01T03:11:01.166Z,21.86
2023-01-01T03:12:29.726Z,21.89
2023-01-01T03:14:10.175Z,21.91
2023-01-01T03:15:17.543Z,21.93
2023-01-01T03:20:28.029Z,22.11
2023-01-01T03:21:31.458Z,22.01
2023-01-01T03:23:46.067Z,22.05
2023-01-01T03:26:05.761Z,22.22
2023-01-01T03:27:15.400Z,22.14
2023-01-01T03:28:20.947Z,22.15
2023-01-01T03:29:23.943Z,22.18
2023-01-01T03:30:26.323Z,22.19
2023-01-01T03:31:29.531Z,22.22
2023-01-01T03:32:53.501Z,22.24
2023-01-01T03:34:02.519Z,22.27
2023-01-01T03:35:06.413Z,22.29
2023-01-01T03:36:12.803Z,22.30
2023-01-01T03:37:17.913Z,22.30
2023-01-01T03:38:38.657Z,22.32
2023-01-01T03:39:44.793Z,22.33
2023-01-01T03:40:47.649Z,22.36
2023-01-01T03:41:59.738Z,22.36
2023-01-01T03:43:13.795Z,22.36
2023-01-01T03:44:19.907Z,22.37
2023-01-01T03:45:25.335Z,22.37
2023-01-01T03:46:30.871Z,22.38
2023-01-01T03:47:33.638Z,22.38
2023-01-01T03:48:39.005Z,22.38
2023-01-01T03:49:41.859Z,22.38
2023-01-01T03:51:11.992Z,22.39
2023-01-01T03:52:43.968Z,22.40
2023-01-01T03:53:48.073Z,22.41
2023-01-01T03:54:59.062Z,22.40
2023-01-01T03:56:16.833Z,22.41
2023-01-01T03:57:47.263Z,22.40
2023-01-01T03:58:52.712Z,22.40
2023-01-01T04:00:08.529Z,22.40
2023-01-01T04:01:24.582Z,22.40
2023-01-01T04:02:30.534Z,22.39
2023-01-01T04:03:33.603Z,22.38
2023-01-01T04:04:36.114Z,22.39
2023-01-01T04:05:40.010Z,22.38
2023-01-01T04:06:43.079Z,22.39
2023-01-01T04:08:48.312Z,22.40
2023-01-01T04:09:54.402Z,22.41
2023-01-01T04:10:58.906Z,22.42
2023-01-01T04:12:04.119Z,22.42
2023-01-01T04:13:06.480Z,22.43
2023-01-01T04:14:09.580Z,22.45
2023-01-01T04:15:12.172Z,22.45
2023-01-01T04:16:15.594Z,22.46
2023-01-01T04:17:18.114Z,22.47
2023-01-01T04:18:21.989Z,22.48
2023-01-01T04:19:26.156Z,22.49
2023-01-01T04:20:28.803Z,22.50
2023-01-01T04:21:34.120Z,22.50
2023-01-01T04:22:37.849Z,22.50
2023-01-01T04:23:41.009Z,22.51
2023-01-01T04:24:43.869Z,22.51
2023-01-01T04:25:47.861Z,22.52
2023-01-01T04:26:51.531Z,22.53
2023-01-01T04:27:54.132Z,22.53
2023-01-01T04:28:56.574Z,22.54
2023-01-01T04:29:59.387Z,22.54
2023-01-01T04:31:03.470Z,22.55
2023-01-01T04:32:05.952Z,22.56
2023-01-01T04:33:08.368Z,22.56
2023-01-01T04:34:11.187Z,22.56
2023-01-01T04:35:14.132Z,22.56
2023-01-01T04:36:17.677Z,22.57
2023-01-01T04:37:20.179Z,22.56
2023-01-01T04:38:22.867Z,22.57
2023-01-01T04:39:25.307Z,22.58
2023-01-01T04:40:27.940Z,22.59
2023-01-01T04:41:30.476Z,22.59
2023-01-01T04:42:32.907Z,22.59
2023-01-01T04:43:35.578Z,22.60
2023-01-01T04:44:38.073Z,22.60
2023-01-01T04:45:40.551Z,22.61
2023-01-01T04:46:43.163Z,22.60
2023-01-01T04:47:48.123Z,22.61
2023-01-01T04:48:51.712Z,22.61
2023-01-01T04:49:54.688Z,22.62
2023-01-01T04:52:11.446Z,22.74
2023-01-01T04:53:13.604Z,22.62
2023-01-01T04:54:15.894Z,22.62
2023-01-01T04:55:20.470Z,22.62
2023-01-01T04:56:22.957Z,22.64
2023-01-01T04:57:25.364Z,22.63
2023-01-01T04:58:28.783Z,22.64
2023-01-01T04:59:31.256Z,22.65
2023-01-01T05:00:34.105Z,22.65
2023-01-01T05:01:37.557Z,22.65
2023-01-01T05:02:40.472Z,22.65
2023-01-01T05:03:42.938Z,22.65
2023-01-01T05:04:46.788Z,22.65
2023-01-01T05:07:13.125Z,22.77
2023-01-01T05:08:15.464Z,22.65
2023-01-01T05:09:18.210Z,22.66
2023-01-01T05:10:20.953Z,22.65
2023-01-01T05:11:25.190Z,22.65
2023-01-01T05:12:29.435Z,22.66
2023-01-01T05:13:31.668Z,22.66
2023-01-01T05:14:34.688Z,22.66
2023-01-01T05:15:37.115Z,22.67
2023-01-01T05:16:39.886Z,22.67
2023-01-01T05:17:42.139Z,22.67
2023-01-01T05:18:44.562Z,22.67
2023-01-01T05:19:47.218Z,22.67
2023-01-01T05:20:50.163Z,22.68
2023-01-01T05:21:53.460Z,22.69
2023-01-01T05:22:55.706Z,22.69
2023-01-01T05:23:59.944Z,22.68
2023-01-01T05:25:02.709Z,22.70
2023-01-01T05:27:24.519Z,22.81
2023-01-01T05:28:28.259Z,22.71
2023-01-01T05:29:30.888Z,22.69
2023-01-01T05:30:33.609Z,22.70
2023-01-01T05:31:36.514Z,22.70
2023-01-01T05:32:38.974Z,22.71
2023-01-01T05:33:41.960Z,22.70
2023-01-01T05:34:44.423Z,22.72
2023-01-01T05:35:54.682Z,22.71
2023-01-01T05:36:57.150Z,22.71
2023-01-01T05:38:00.345Z,22.71
2023-01-01T05:39:03.289Z,22.70
2023-01-01T05:40:07.002Z,22.71
2023-01-01T05:41:10.570Z,22.70
2023-01-01T05:42:14.971Z,22.70
2023-01-01T05:43:17.416Z,22.70
2023-01-01T05:44:20.741Z,22.71
2023-01-01T05:45:23.278Z,22.70
2023-01-01T05:46:26.289Z,22.71
2023-01-01T05:47:30.628Z,22.71
2023-01-01T05:48:35.051Z,22.71
2023-01-01T05:49:39.018Z,22.71
2023-01-01T05:50:41.566Z,22.70
2023-01-01T05:51:44.674Z,22.71
2023-01-01T05:52:46.981Z,22.70
2023-01-01T05:53:50.338Z,22.70
2023-01-01T05:54:52.926Z,22.71
2023-01-01T05:55:55.230Z,22.71
2023-01-01T05:56:59.480Z,22.70
2023-01-01T05:58:02.986Z,22.70
2023-01-01T05:59:06.023Z,22.70
2023-01-01T06:00:11.566Z,22.70
2023-01-01T06:01:24.894Z,22.71
2023-01-01T06:02:32.219Z,22.72
2023-01-01T06:03:34.956Z,22.71
2023-01-01T06:04:37.758Z,22.71
2023-01-01T06:05:40.353Z,22.70
2023-01-01T06:06:42.677Z,22.72
2023-01-01T06:07:48.636Z,22.71
2023-01-01T06:10:07.099Z,22.83
2023-01-01T06:11:11.038Z,22.71
2023-01-01T06:12:14.539Z,22.71
2023-01-01T06:13:18.749Z,22.72
2023-01-01T06:14:21.121Z,22.73
2023-01-01T06:15:27.968Z,22.72
2023-01-01T06:16:30.620Z,22.72
2023-01-01T06:17:33.712Z,22.73
2023-01-01T06:18:36.593Z,22.73
2023-01-01T06:19:39.793Z,22.73
2023-01-01T06:20:42.896Z,22.74
2023-01-01T06:21:45.248Z,22.73
2023-01-01T06:22:47.936Z,22.74
2023-01-01T06:23:51.838Z,22.75
2023-01-01T06:24:55.104Z,22.75
2023-01-01T06:26:01.325Z,22.75
2023-01-01T06:27:03.696Z,22.75
2023-01-01T06:28:05.985Z,22.75
2023-01-01T06:29:10.288Z,22.75
2023-01-01T06:30:14.160Z,22.75
2023-01-01T06:31:19.522Z,22.75
2023-01-01T06:32:21.968Z,22.75
2023-01-01T06:33:24.264Z,22.75
2023-01-01T06:34:26.660Z,22.76
2023-01-01T06:35:29.459Z,22.75
2023-01-01T06:36:32.141Z,22.75
2023-01-01T06:37:34.894Z,22.75
2023-01-01T06:38:39.495Z,22.75
2023-01-01T06:39:42.555Z,22.76
2023-01-01T06:42:03.009Z,22.87
2023-01-01T06:43:06.079Z,22.78
2023-01-01T06:44:09.001Z,22.77
2023-01-01T06:45:12.719Z,22.77
2023-01-01T06:46:28.887Z,22.77
2023-01-01T06:48:47.329Z,22.87
2023-01-01T06:49:49.556Z,22.77
2023-01-01T06:50:52.137Z,22.77
2023-01-01T06:51:55.290Z,22.77
2023-01-01T06:52:58.303Z,22.78
2023-01-01T06:54:01.447Z,22.77
2023-01-01T06:55:04.740Z,22.77
2023-01-01T06:56:09.050Z,22.78
2023-01-01T06:57:11.378Z,22.78
2023-01-01T06:58:13.967Z,22.78
2023-01-01T06:59:19.957Z,22.78
2023-01-01T07:00:23.183Z,22.79
2023-01-01T07:01:27.807Z,22.79
2023-01-01T07:02:30.811Z,22.78
2023-01-01T07:03:37.549Z,22.79
2023-01-01T07:04:41.048Z,22.79
2023-01-01T07:05:43.693Z,22.80
2023-01-01T07:06:46.627Z,22.80
2023-01-01T07:07:49.965Z,22.80
2023-01-01T07:08:52.551Z,22.81
2023-01-01T07:09:54.939Z,22.80
2023-01-01T07:10:58.490Z,22.81
2023-01-01T07:12:00.825Z,22.81
2023-01-01T07:13:04.313Z,22.83
2023-01-01T07:14:06.960Z,22.83
2023-01-01T07:15:10.515Z,22.83
2023-01-01T07:16:14.059Z,22.83
2023-01-01T07:17:17.222Z,22.83
2023-01-01T07:18:23.431Z,22.84
2023-01-01T07:19:27.583Z,22.84
2023-01-01T07:20:30.705Z,22.85
2023-01-01T07:21:45.028Z,22.85
2023-01-01T07:22:47.449Z,22.85
2023-01-01T07:23:49.646Z,22.84
2023-01-01T07:24:52.505Z,22.85
2023-01-01T07:25:55.133Z,22.84
2023-01-01T07:26:57.898Z,22.84
2023-01-01T07:28:01.042Z,22.83
2023-01-01T07:29:08.007Z,22.84
2023-01-01T07:30:10.146Z,22.84
2023-01-01T07:31:13.282Z,22.84
2023-01-01T07:32:17.778Z,22.84
2023-01-01T07:33:21.737Z,22.83
2023-01-01T07:34:24.182Z,22.84
2023-01-01T07:35:28.668Z,22.86
2023-01-01T07:36:31.162Z,22.80
2023-01-01T07:37:33.727Z,22.80
2023-01-01T07:38:36.738Z,22.86
2023-01-01T07:39:39.126Z,22.86
2023-01-01T07:40:43.571Z,22.87
2023-01-01T07:41:46.271Z,22.86
2023-01-01T07:42:49.241Z,22.87
2023-01-01T07:43:52.651Z,22.87
2023-01-01T07:44:55.312Z,22.87
2023-01-01T07:45:58.847Z,22.87
2023-01-01T07:47:05.508Z,22.87
2023-01-01T07:48:10.176Z,22.88
2023-01-01T07:49:13.515Z,22.87
2023-01-01T07:50:18.122Z,22.87
2023-01-01T07:51:21.575Z,22.87
2023-01-01T07:52:24.076Z,22.87
2023-01-01T07:53:28.755Z,22.87
2023-01-01T07:54:31.611Z,22.87
2023-01-01T07:55:35.297Z,22.87
2023-01-01T07:56:37.930Z,22.87
2023-01-01T07:57:41.168Z,22.88
2023-01-01T07:58:43.787Z,22.87
2023-01-01T07:59:47.080Z,22.88
2023-01-01T08:00:50.104Z,22.88
2023-01-01T08:01:52.807Z,22.87
2023-01-01T08:02:55.429Z,22.88
2023-01-01T08:03:57.964Z,22.88
2023-01-01T08:05:00.438Z,22.88
2023-01-01T08:07:24.050Z,22.98
2023-01-01T08:08:26.581Z,22.89
2023-01-01T08:09:28.863Z,22.88
2023-01-01T08:10:34.014Z,22.88
2023-01-01T08:11:38.328Z,22.89
2023-01-01T08:12:41.089Z,22.89
2023-01-01T08:13:43.527Z,22.90
2023-01-01T08:14:46.858Z,22.91
2023-01-01T08:15:52.119Z,22.91
2023-01-01T08:16:55.215Z,22.90
2023-01-01T08:18:04.165Z,22.91
2023-01-01T08:19:06.599Z,22.91
2023-01-01T08:20:10.512Z,22.90
2023-01-01T08:21:13.468Z,22.89
2023-01-01T08:22:17.545Z,22.90
2023-01-01T08:23:19.895Z,22.89
2023-01-01T08:24:23.244Z,22.89
2023-01-01T08:25:25.699Z,22.89
2023-01-01T08:26:33.806Z,22.88
2023-01-01T08:27:37.552Z,22.90
2023-01-01T08:28:40.460Z,22.89
2023-01-01T08:29:44.684Z,22.88
2023-01-01T08:30:47.783Z,22.88
2023-01-01T08:31:50.211Z,22.88
2023-01-01T08:32:53.407Z,22.88
2023-01-01T08:33:55.756Z,22.88
2023-01-01T08:34:58.088Z,22.87
2023-01-01T08:36:00.772Z,22.88
2023-01-01T08:37:03.516Z,22.88
2023-01-01T08:38:06.220Z,22.87
2023-01-01T08:39:08.720Z,22.87
2023-01-01T08:40:14.041Z,22.87
2023-01-01T08:41:18.083Z,22.86
2023-01-01T08:42:20.838Z,22.86
2023-01-01T08:43:23.061Z,22.87
2023-01-01T08:44:25.548Z,22.87
2023-01-01T08:45:28.406Z,22.86
2023-01-01T08:46:33.808Z,22.87
2023-01-01T08:47:37.123Z,22.87
2023-01-01T08:48:39.467Z,22.87
2023-01-01T08:49:43.844Z,22.87
2023-01-01T08:50:56.877Z,22.85
2023-01-01T08:51:59.580Z,22.82
2023-01-01T08:53:03.011Z,22.79
2023-01-01T08:54:06.486Z,22.76
2023-01-01T08:55:10.778Z,22.74
2023-01-01T08:56:16.214Z,22.71
2023-01-01T08:57:18.703Z,22.72
2023-01-01T08:58:21.273Z,22.64
2023-01-01T08:59:24.937Z,22.64
2023-01-01T09:00:28.052Z,22.68
2023-01-01T09:01:32.204Z,22.67
2023-01-01T09:02:54.033Z,22.63
2023-01-01T09:03:57.723Z,22.58
2023-01-01T09:05:00.405Z,22.57
2023-01-01T09:06:03.549Z,22.57
2023-01-01T09:07:06.497Z,22.54
2023-01-01T09:08:10.396Z,22.50
2023-01-01T09:09:13.953Z,22.40
2023-01-01T09:10:18.444Z,22.40
2023-01-01T09:11:25.643Z,22.43
2023-01-01T09:12:29.225Z,22.40
2023-01-01T09:13:33.054Z,22.39
2023-01-01T09:14:35.678Z,22.40
2023-01-01T09:15:39.147Z,22.40
2023-01-01T09:16:44.460Z,22.42
2023-01-01T09:17:47.544Z,22.43
2023-01-01T09:18:50.023Z,22.44
2023-01-01T09:19:52.329Z,22.45
2023-01-01T09:20:54.867Z,22.45
2023-01-01T09:21:57.401Z,22.46
2023-01-01T09:23:05.671Z,22.48
2023-01-01T09:24:04.950Z,22.46
2023-01-01T09:25:09.549Z,22.47
2023-01-01T09:26:13.478Z,22.45
2023-01-01T09:27:15.865Z,22.46
2023-01-01T09:28:25.482Z,22.46
2023-01-01T09:29:23.773Z,22.45
2023-01-01T09:30:26.593Z,22.44
2023-01-01T09:31:29.288Z,22.45
2023-01-01T09:32:31.800Z,22.46
2023-01-01T09:33:36.429Z,22.45
2023-01-01T09:34:39.122Z,22.45
2023-01-01T09:35:45.045Z,22.45
2023-01-01T09:36:48.367Z,22.45
2023-01-01T09:37:53.367Z,22.43
2023-01-01T09:38:56.779Z,22.38
2023-01-01T09:39:59.781Z,22.33
2023-01-01T09:41:08.340Z,22.28
2023-01-01T09:42:30.559Z,22.26
2023-01-01T09:43:42.783Z,22.24
2023-01-01T09:45:07.946Z,22.23
2023-01-01T09:46:11.804Z,22.24
2023-01-01T09:47:24.194Z,22.26
2023-01-01T09:48:28.730Z,22.26
2023-01-01T09:49:40.783Z,22.24
2023-01-01T09:50:45.331Z,22.22
2023-01-01T09:51:57.698Z,22.22
2023-01-01T09:52:57.374Z,22.24
2023-01-01T09:54:06.528Z,22.24
2023-01-01T09:55:14.647Z,22.26
2023-01-01T09:56:20.294Z,22.28
2023-01-01T09:57:26.582Z,22.28
2023-01-01T09:59:47.741Z,22.41
2023-01-01T10:00:54.390Z,22.32
2023-01-01T10:02:20.642Z,22.31
2023-01-01T10:03:57.343Z,22.32
2023-01-01T10:05:07.990Z,22.33
2023-01-01T10:07:44.812Z,22.44
2023-01-01T10:09:00.889Z,22.29
2023-01-01T10:10:34.051Z,22.30
2023-01-01T10:11:43.407Z,22.29
2023-01-01T10:13:07.508Z,22.29
2023-01-01T10:14:19.801Z,22.26
2023-01-01T10:15:37.921Z,22.20
2023-01-01T10:16:43.997Z,22.17
2023-01-01T10:17:48.151Z,22.18
2023-01-01T10:18:53.789Z,22.16
2023-01-01T10:19:58.458Z,22.11
2023-01-01T10:21:13.984Z,22.05
2023-01-01T10:22:26.088Z,22.04
2023-01-01T10:23:42.670Z,22.03
2023-01-01T10:24:49.044Z,22.01
2023-01-01T10:25:51.791Z,21.96
2023-01-01T10:26:54.275Z,21.91
2023-01-01T10:28:00.028Z,21.86
2023-01-01T10:29:10.087Z,21.83
2023-01-01T10:30:19.461Z,21.84
2023-01-01T10:31:34.837Z,21.85
2023-01-01T10:32:39.838Z,21.83
2023-01-01T10:33:43.232Z,21.86
2023-01-01T10:34:46.913Z,21.79
2023-01-01T10:35:50.574Z,21.74
2023-01-01T10:38:12.401Z,21.83
2023-01-01T10:39:17.029Z,21.74
2023-01-01T10:40:20.663Z,21.74
2023-01-01T10:41:23.017Z,21.72
2023-01-01T10:42:26.536Z,21.71
2023-01-01T10:43:30.132Z,21.72
2023-01-01T10:44:34.919Z,21.69
2023-01-01T10:45:53.739Z,21.69
2023-01-01T10:46:58.719Z,21.74
2023-01-01T10:48:25.515Z,21.74
2023-01-01T10:49:28.033Z,21.74
2023-01-01T10:50:52.302Z,21.79
2023-01-01T10:51:54.785Z,21.79
2023-01-01T10:52:58.367Z,21.80
2023-01-01T10:54:00.803Z,21.81
2023-01-01T10:55:04.743Z,21.82
2023-01-01T10:56:16.829Z,21.84
2023-01-01T10:57:29.012Z,21.82
2023-01-01T11:00:22.632Z,21.88
2023-01-01T11:01:29.224Z,21.75
2023-01-01T11:02:32.123Z,21.72
2023-01-01T11:03:34.608Z,21.72
2023-01-01T11:04:39.016Z,21.75
2023-01-01T11:07:30.141Z,21.91
2023-01-01T11:08:33.780Z,21.83
2023-01-01T11:09:39.028Z,21.85
2023-01-01T11:10:43.801Z,21.86
2023-01-01T11:11:47.984Z,21.88
2023-01-01T11:13:10.407Z,21.89
2023-01-01T11:14:01.667Z,21.91
2023-01-01T11:15:05.112Z,21.93
2023-01-01T11:16:11.815Z,21.95
2023-01-01T11:17:22.677Z,21.98
2023-01-01T11:19:44.371Z,22.11
2023-01-01T11:22:04.751Z,22.15
2023-01-01T11:23:39.046Z,22.05
2023-01-01T11:24:43.477Z,22.07
2023-01-01T11:26:02.729Z,22.08
2023-01-01T11:27:22.192Z,22.09
2023-01-01T11:28:26.940Z,22.10
2023-01-01T11:29:30.119Z,22.10
2023-01-01T11:30:32.968Z,22.11
2023-01-01T11:31:36.646Z,22.10
2023-01-01T11:32:39.644Z,22.10
2023-01-01T11:33:53.594Z,22.10
2023-01-01T11:36:11.773Z,22.22
2023-01-01T11:37:20.524Z,22.13
2023-01-01T11:38:29.724Z,22.14
2023-01-01T11:39:28.844Z,22.13
2023-01-01T11:40:39.149Z,22.13
2023-01-01T11:42:59.799Z,22.26
2023-01-01T11:44:02.626Z,22.16
2023-01-01T11:45:23.801Z,22.16
2023-01-01T11:46:27.171Z,22.16
2023-01-01T11:47:37.957Z,22.18
2023-01-01T11:48:42.198Z,22.19
2023-01-01T11:49:45.028Z,22.18
2023-01-01T11:50:54.178Z,22.18
2023-01-01T11:51:57.661Z,22.18
2023-01-01T11:54:37.771Z,22.28
2023-01-01T11:55:44.497Z,22.17
2023-01-01T11:56:48.450Z,22.17
2023-01-01T11:58:06.676Z,22.16
2023-01-01T11:59:14.710Z,22.18
2023-01-01T12:00:19.926Z,22.19
2023-01-01T12:01:38.581Z,22.20
2023-01-01T12:04:06.787Z,22.32
2023-01-01T12:05:19.110Z,22.20
2023-01-01T12:06:29.043Z,22.19
2023-01-01T12:07:33.480Z,22.19
2023-01-01T12:09:06.646Z,22.18
2023-01-01T12:10:19.350Z,22.18
2023-01-01T12:11:33.698Z,22.19
2023-01-01T12:12:49.468Z,22.19
2023-01-01T12:15:30.219Z,22.27
2023-01-01T12:16:46.830Z,22.16
2023-01-01T12:17:54.585Z,22.14
2023-01-01T12:20:24.322Z,22.24
2023-01-01T12:21:28.642Z,22.14
2023-01-01T12:22:31.687Z,22.13
2023-01-01T12:23:34.122Z,22.14
2023-01-01T12:24:37.150Z,22.14
2023-01-01T12:25:41.598Z,22.17
2023-01-01T12:26:56.887Z,22.17
2023-01-01T12:28:18.645Z,22.18
2023-01-01T12:29:46.165Z,22.19
2023-01-01T12:31:01.648Z,22.20
2023-01-01T12:32:11.174Z,22.20
2023-01-01T12:33:39.958Z,22.20
2023-01-01T12:35:01.532Z,22.18
2023-01-01T12:36:16.959Z,22.18
2023-01-01T12:37:39.874Z,22.17
2023-01-01T12:39:00.616Z,22.17
2023-01-01T12:40:36.884Z,22.18
2023-01-01T12:42:04.291Z,22.18
2023-01-01T12:43:24.676Z,22.18
2023-01-01T12:44:50.825Z,22.18
2023-01-01T12:46:16.862Z,22.19
2023-01-01T12:47:44.178Z,22.19
2023-01-01T12:49:13.238Z,22.21
2023-01-01T12:50:23.711Z,22.21
2023-01-01T12:52:55.801Z,22.33
2023-01-01T12:54:05.071Z,22.24
2023-01-01T12:55:26.889Z,22.25
2023-01-01T12:56:44.843Z,22.27
2023-01-01T12:58:08.786Z,22.29
2023-01-01T13:00:27.474Z,22.46
2023-01-01T13:01:33.865Z,22.37
2023-01-01T13:02:36.564Z,22.39
2023-01-01T13:05:09.620Z,22.55
2023-01-01T13:06:12.563Z,22.46
2023-01-01T13:07:14.858Z,22.47
2023-01-01T13:08:17.065Z,22.50
2023-01-01T13:09:22.523Z,22.53
2023-01-01T13:10:34.466Z,22.54
2023-01-01T13:11:43.059Z,22.57
2023-01-01T13:12:42.519Z,22.59
2023-01-01T13:13:45.471Z,22.62
2023-01-01T13:16:36.342Z,22.78
2023-01-01T13:17:38.784Z,22.70
2023-01-01T13:18:42.627Z,22.70
2023-01-01T13:19:45.074Z,22.73
2023-01-01T13:20:58.122Z,22.74
2023-01-01T13:22:22.265Z,22.75
2023-01-01T13:23:34.881Z,22.77
2023-01-01T13:24:38.173Z,22.77
2023-01-01T13:25:41.487Z,22.77
2023-01-01T13:26:44.985Z,22.78
2023-01-01T13:28:02.786Z,22.79
2023-01-01T13:29:14.852Z,22.79
2023-01-01T13:30:43.237Z,22.81
2023-01-01T13:32:00.396Z,22.82
2023-01-01T13:33:29.098Z,22.82
2023-01-01T13:34:41.262Z,22.84
2023-01-01T13:35:44.058Z,22.84
2023-01-01T13:36:48.185Z,22.85
2023-01-01T13:37:50.529Z,22.86
2023-01-01T13:38:58.480Z,22.86
2023-01-01T13:40:03.908Z,22.87
2023-01-01T13:41:10.960Z,22.87
2023-01-01T13:42:40.052Z,22.89
2023-01-01T13:43:42.522Z,22.90
2023-01-01T13:44:44.847Z,22.92
2023-01-01T13:47:11.703Z,22.93
2023-01-01T13:48:36.556Z,22.93
2023-01-01T13:50:07.707Z,22.93
2023-01-01T13:52:04.332Z,22.93
2023-01-01T13:52:57.419Z,22.92
2023-01-01T13:57:06.519Z,23.03
2023-01-01T13:58:44.422Z,22.92
2023-01-01T14:00:07.461Z,22.91
2023-01-01T14:01:25.223Z,22.91
2023-01-01T14:02:46.966Z,22.91
2023-01-01T14:03:51.707Z,22.91
2023-01-01T14:06:25.938Z,23.03
2023-01-01T14:09:06.951Z,23.06
2023-01-01T14:11:33.798Z,23.07
2023-01-01T14:12:37.385Z,22.97
2023-01-01T14:13:40.961Z,22.98
2023-01-01T14:14:44.859Z,22.98
2023-01-01T14:16:01.054Z,23.00
2023-01-01T14:17:06.552Z,23.01
2023-01-01T14:18:14.445Z,23.03
2023-01-01T14:19:17.970Z,23.03
2023-01-01T14:20:22.192Z,23.04
2023-01-01T14:22:39.915Z,23.15
2023-01-01T14:25:04.025Z,23.15
2023-01-01T14:26:12.856Z,23.06
2023-01-01T14:27:19.570Z,23.06
2023-01-01T14:28:25.278Z,23.06
2023-01-01T14:29:32.496Z,23.07
2023-01-01T14:30:36.493Z,23.08
2023-01-01T14:31:41.188Z,23.08
2023-01-01T14:32:44.025Z,23.08
2023-01-01T14:33:46.882Z,23.09
2023-01-01T14:36:26.520Z,23.22
2023-01-01T14:37:28.889Z,23.11
2023-01-01T14:38:35.181Z,23.11
2023-01-01T14:39:38.075Z,23.11
2023-01-01T14:40:41.742Z,23.11
2023-01-01T14:41:44.576Z,23.12
2023-01-01T14:42:47.683Z,23.13
2023-01-01T14:43:51.884Z,23.14
2023-01-01T14:44:54.190Z,23.14
2023-01-01T14:45:57.597Z,23.14
2023-01-01T14:47:00.270Z,23.15
2023-01-01T14:48:04.863Z,23.15
2023-01-01T14:49:08.941Z,23.15
2023-01-01T14:50:14.874Z,23.16
2023-01-01T14:51:20.719Z,23.16
2023-01-01T14:52:28.246Z,23.16
2023-01-01T14:53:33.019Z,23.16
2023-01-01T14:54:37.863Z,23.16
2023-01-01T14:55:42.195Z,23.17
2023-01-01T14:56:50.308Z,23.18
2023-01-01T14:57:58.464Z,23.19
2023-01-01T14:59:16.802Z,23.18
2023-01-01T15:00:25.292Z,23.19
2023-01-01T15:01:28.077Z,23.21
2023-01-01T15:02:34.976Z,23.20
2023-01-01T15:03:37.445Z,23.21
2023-01-01T15:04:39.735Z,23.20
2023-01-01T15:05:43.453Z,23.21
2023-01-01T15:06:58.843Z,23.21
2023-01-01T15:08:03.649Z,23.22
2023-01-01T15:09:07.858Z,23.22
2023-01-01T15:10:12.703Z,23.23
2023-01-01T15:11:15.305Z,23.23
2023-01-01T15:12:19.617Z,23.24
2023-01-01T15:14:58.579Z,23.35
2023-01-01T15:16:18.437Z,23.24
2023-01-01T15:17:23.501Z,23.25
2023-01-01T15:18:43.511Z,23.25
2023-01-01T15:19:46.815Z,23.25
2023-01-01T15:20:53.398Z,23.25
2023-01-01T15:21:55.844Z,23.25
2023-01-01T15:23:03.585Z,23.25
2023-01-01T15:24:14.853Z,23.24
2023-01-01T15:25:18.103Z,23.24
2023-01-01T15:27:47.067Z,23.37
2023-01-01T15:28:50.173Z,23.25
2023-01-01T15:29:53.845Z,23.25
2023-01-01T15:30:57.403Z,23.25